N428MC KPIB-KEYW
Flight info
| Callsign | N428MC |
|---|---|
| Flight time | 2h 11m |
| Altitude | 29000 |
| Route | GCV PAM CTY PIE CYY KARTR |
| Aircraft | B350/L-VGD/A |
Departure
| Time | 2026-05-04 21:11 |
|---|---|
| Airport | Hattiesburg Laurel Regional Airport (KPIB) |
Arrival
| Time | 2026-05-04 23:22 |
|---|---|
| Airport | Key West International Airport (KEYW) |
| Time | Latitude | Longitude | Altitude | Speed | Heading |
|---|---|---|---|---|---|
| 2026-05-04 21:02 | 31.46911 | -89.33439 | 299 ft | 0 kts | 90° |
| 2026-05-04 21:05 | 31.46911 | -89.33437 | 299 ft | 1 kts | 112° |
| 2026-05-04 21:05 | 31.46893 | -89.33457 | 299 ft | 9 kts | 239° |
| 2026-05-04 21:06 | 31.46827 | -89.33482 | 299 ft | 6 kts | 179° |
| 2026-05-04 21:06 | 31.46754 | -89.33480 | 297 ft | 17 kts | 177° |
| 2026-05-04 21:06 | 31.46609 | -89.33489 | 295 ft | 17 kts | 226° |
| 2026-05-04 21:06 | 31.46579 | -89.33579 | 297 ft | 16 kts | 239° |
| 2026-05-04 21:07 | 31.46547 | -89.33591 | 297 ft | 0 kts | 166° |
| 2026-05-04 21:07 | 31.46522 | -89.33585 | 297 ft | 2 kts | 156° |
| 2026-05-04 21:07 | 31.46457 | -89.33575 | 296 ft | 17 kts | 182° |
| 2026-05-04 21:07 | 31.46322 | -89.33577 | 295 ft | 20 kts | 181° |
| 2026-05-04 21:08 | 31.46160 | -89.33576 | 297 ft | 26 kts | 179° |
| 2026-05-04 21:08 | 31.45942 | -89.33579 | 294 ft | 37 kts | 181° |
| 2026-05-04 21:08 | 31.45830 | -89.33589 | 292 ft | 0 kts | 267° |
| 2026-05-04 21:10 | 31.45829 | -89.33603 | 292 ft | 9 kts | 268° |
| 2026-05-04 21:10 | 31.45882 | -89.33709 | 294 ft | 24 kts | 359° |
| 2026-05-04 21:10 | 31.46333 | -89.33704 | 299 ft | 108 kts | 359° |
| 2026-05-04 21:11 | 31.47314 | -89.33707 | 380 ft | 158 kts | 0° |
| 2026-05-04 21:11 | 31.48455 | -89.33710 | 818 ft | 171 kts | 360° |
| 2026-05-04 21:11 | 31.49665 | -89.33624 | 1377 ft | 175 kts | 10° |
| 2026-05-04 21:11 | 31.50739 | -89.33034 | 1859 ft | 181 kts | 45° |
| 2026-05-04 21:12 | 31.51365 | -89.31760 | 2340 ft | 181 kts | 77° |
| 2026-05-04 21:12 | 31.51471 | -89.30395 | 3076 ft | 167 kts | 103° |
| 2026-05-04 21:12 | 31.50910 | -89.29258 | 3484 ft | 168 kts | 144° |
| 2026-05-04 21:12 | 31.49990 | -89.28355 | 3914 ft | 177 kts | 131° |
| 2026-05-04 21:13 | 31.49293 | -89.27178 | 4362 ft | 183 kts | 126° |
| 2026-05-04 21:13 | 31.48615 | -89.25901 | 4857 ft | 185 kts | 123° |
| 2026-05-04 21:13 | 31.47957 | -89.24605 | 5348 ft | 187 kts | 123° |
| 2026-05-04 21:13 | 31.47304 | -89.23302 | 5830 ft | 188 kts | 123° |
| 2026-05-04 21:14 | 31.46646 | -89.21984 | 6312 ft | 189 kts | 122° |
| 2026-05-04 21:14 | 31.45988 | -89.20662 | 6769 ft | 190 kts | 123° |
| 2026-05-04 21:14 | 31.45322 | -89.19327 | 7212 ft | 192 kts | 123° |
| 2026-05-04 21:14 | 31.44652 | -89.17982 | 7639 ft | 195 kts | 123° |
| 2026-05-04 21:15 | 31.43961 | -89.16593 | 8080 ft | 198 kts | 123° |
| 2026-05-04 21:15 | 31.43269 | -89.15205 | 8563 ft | 200 kts | 123° |
| 2026-05-04 21:15 | 31.42570 | -89.13802 | 9058 ft | 201 kts | 123° |
| 2026-05-04 21:15 | 31.41865 | -89.12389 | 9536 ft | 202 kts | 124° |
| 2026-05-04 21:16 | 31.41161 | -89.10976 | 9973 ft | 204 kts | 124° |
| 2026-05-04 21:16 | 31.40449 | -89.09549 | 10427 ft | 205 kts | 124° |
| 2026-05-04 21:16 | 31.39736 | -89.08121 | 10866 ft | 206 kts | 124° |
| 2026-05-04 21:16 | 31.39014 | -89.06674 | 11292 ft | 207 kts | 124° |
| 2026-05-04 21:17 | 31.38289 | -89.05223 | 11708 ft | 208 kts | 124° |
| 2026-05-04 21:17 | 31.37548 | -89.03741 | 12149 ft | 212 kts | 124° |
| 2026-05-04 21:17 | 31.36806 | -89.02256 | 12644 ft | 212 kts | 124° |
| 2026-05-04 21:17 | 31.36063 | -89.00771 | 13138 ft | 212 kts | 124° |
| 2026-05-04 21:18 | 31.35326 | -88.99297 | 13609 ft | 214 kts | 124° |
| 2026-05-04 21:18 | 31.34571 | -88.97787 | 14098 ft | 219 kts | 124° |
| 2026-05-04 21:18 | 31.33797 | -88.96241 | 14612 ft | 222 kts | 123° |
| 2026-05-04 21:18 | 31.33011 | -88.94673 | 15146 ft | 223 kts | 123° |
| 2026-05-04 21:19 | 31.32235 | -88.93123 | 15624 ft | 226 kts | 123° |
| 2026-05-04 21:19 | 31.31435 | -88.91528 | 16095 ft | 229 kts | 123° |
| 2026-05-04 21:19 | 31.30627 | -88.89918 | 16570 ft | 231 kts | 123° |
| 2026-05-04 21:19 | 31.29822 | -88.88313 | 17028 ft | 232 kts | 122° |
| 2026-05-04 21:20 | 31.29001 | -88.86678 | 17441 ft | 236 kts | 122° |
| 2026-05-04 21:20 | 31.28174 | -88.85030 | 17869 ft | 238 kts | 122° |
| 2026-05-04 21:20 | 31.27326 | -88.83343 | 18285 ft | 240 kts | 122° |
| 2026-05-04 21:20 | 31.26482 | -88.81665 | 18713 ft | 241 kts | 121° |
| 2026-05-04 21:21 | 31.25639 | -88.79987 | 19107 ft | 243 kts | 122° |
| 2026-05-04 21:21 | 31.24776 | -88.78271 | 19487 ft | 246 kts | 122° |
| 2026-05-04 21:21 | 31.23918 | -88.76567 | 19886 ft | 246 kts | 122° |
| 2026-05-04 21:21 | 31.23050 | -88.74844 | 20265 ft | 248 kts | 122° |
| 2026-05-04 21:22 | 31.22171 | -88.73098 | 20645 ft | 248 kts | 122° |
| 2026-05-04 21:22 | 31.21300 | -88.71371 | 21002 ft | 249 kts | 122° |
| 2026-05-04 21:22 | 31.20424 | -88.69632 | 21342 ft | 251 kts | 122° |
| 2026-05-04 21:22 | 31.19534 | -88.67868 | 21683 ft | 252 kts | 122° |
| 2026-05-04 21:23 | 31.18649 | -88.66115 | 22008 ft | 253 kts | 122° |
| 2026-05-04 21:23 | 31.17746 | -88.64326 | 22311 ft | 256 kts | 122° |
| 2026-05-04 21:23 | 31.16841 | -88.62535 | 22600 ft | 258 kts | 122° |
| 2026-05-04 21:23 | 31.15931 | -88.60735 | 22920 ft | 258 kts | 122° |
| 2026-05-04 21:24 | 31.15027 | -88.58948 | 23210 ft | 260 kts | 122° |
| 2026-05-04 21:24 | 31.14112 | -88.57138 | 23501 ft | 262 kts | 122° |
| 2026-05-04 21:24 | 31.13176 | -88.55286 | 23790 ft | 263 kts | 122° |
| 2026-05-04 21:24 | 31.12254 | -88.53466 | 24105 ft | 262 kts | 122° |
| 2026-05-04 21:25 | 31.11326 | -88.51637 | 24384 ft | 265 kts | 121° |
| 2026-05-04 21:25 | 31.10384 | -88.49775 | 24679 ft | 267 kts | 122° |
| 2026-05-04 21:25 | 31.09526 | -88.47865 | 24962 ft | 267 kts | 110° |
| 2026-05-04 21:25 | 31.08856 | -88.45853 | 25258 ft | 267 kts | 109° |
| 2026-05-04 21:26 | 31.08179 | -88.43828 | 25546 ft | 268 kts | 110° |
| 2026-05-04 21:26 | 31.07500 | -88.41807 | 25829 ft | 269 kts | 109° |
| 2026-05-04 21:26 | 31.06815 | -88.39772 | 26088 ft | 270 kts | 110° |
| 2026-05-04 21:26 | 31.06127 | -88.37734 | 26329 ft | 272 kts | 109° |
| 2026-05-04 21:27 | 31.05434 | -88.35680 | 26594 ft | 272 kts | 110° |
| 2026-05-04 21:27 | 31.04759 | -88.33682 | 26831 ft | 272 kts | 109° |
| 2026-05-04 21:27 | 31.04061 | -88.31622 | 27066 ft | 272 kts | 109° |
| 2026-05-04 21:27 | 31.03368 | -88.29570 | 27280 ft | 274 kts | 110° |
| 2026-05-04 21:28 | 31.02670 | -88.27514 | 27514 ft | 274 kts | 110° |
| 2026-05-04 21:28 | 31.01977 | -88.25466 | 27693 ft | 276 kts | 110° |
| 2026-05-04 21:28 | 31.01272 | -88.23389 | 27896 ft | 276 kts | 110° |
| 2026-05-04 21:28 | 31.00569 | -88.21317 | 28114 ft | 275 kts | 110° |
| 2026-05-04 21:29 | 30.99867 | -88.19250 | 28323 ft | 276 kts | 109° |
| 2026-05-04 21:29 | 30.99162 | -88.17175 | 28472 ft | 278 kts | 109° |
| 2026-05-04 21:29 | 30.98450 | -88.15080 | 28643 ft | 278 kts | 109° |
| 2026-05-04 21:29 | 30.97739 | -88.12988 | 28795 ft | 280 kts | 110° |
| 2026-05-04 21:30 | 30.97024 | -88.10886 | 28968 ft | 282 kts | 110° |
| 2026-05-04 21:30 | 30.96290 | -88.08730 | 28995 ft | 291 kts | 109° |
| 2026-05-04 21:30 | 30.94746 | -88.04202 | 29005 ft | 310 kts | 110° |
| 2026-05-04 21:31 | 30.93105 | -87.99397 | 29024 ft | 329 kts | 110° |
| 2026-05-04 21:31 | 30.92249 | -87.96892 | 29018 ft | 338 kts | 110° |
| 2026-05-04 21:32 | 30.90463 | -87.91675 | 29018 ft | 355 kts | 110° |
| 2026-05-04 21:32 | 30.88609 | -87.86266 | 29007 ft | 370 kts | 110° |
| 2026-05-04 21:33 | 30.86667 | -87.80607 | 29014 ft | 383 kts | 110° |
| 2026-05-04 21:33 | 30.84680 | -87.74828 | 29001 ft | 388 kts | 111° |
| 2026-05-04 21:34 | 30.82679 | -87.69016 | 28999 ft | 386 kts | 110° |
| 2026-05-04 21:34 | 30.80694 | -87.63268 | 29004 ft | 380 kts | 110° |
| 2026-05-04 21:35 | 30.78754 | -87.57655 | 29002 ft | 375 kts | 110° |
| 2026-05-04 21:35 | 30.76829 | -87.52091 | 29000 ft | 371 kts | 111° |
| 2026-05-04 21:36 | 30.74909 | -87.46552 | 29006 ft | 365 kts | 111° |
| 2026-05-04 21:36 | 30.73035 | -87.41156 | 29013 ft | 360 kts | 111° |
| 2026-05-04 21:37 | 30.71181 | -87.35826 | 29022 ft | 356 kts | 111° |
| 2026-05-04 21:37 | 30.69337 | -87.30529 | 29022 ft | 351 kts | 111° |
| 2026-05-04 21:38 | 30.67529 | -87.25344 | 29027 ft | 345 kts | 112° |
| 2026-05-04 21:38 | 30.65735 | -87.20213 | 29015 ft | 341 kts | 111° |
| 2026-05-04 21:39 | 30.63972 | -87.15171 | 29020 ft | 338 kts | 112° |
| 2026-05-04 21:39 | 30.62211 | -87.10143 | 29023 ft | 339 kts | 111° |
| 2026-05-04 21:40 | 30.60433 | -87.05080 | 29031 ft | 339 kts | 112° |
| 2026-05-04 21:40 | 30.58656 | -87.00023 | 29027 ft | 340 kts | 112° |
| 2026-05-04 21:41 | 30.56874 | -86.94957 | 29030 ft | 341 kts | 112° |
| 2026-05-04 21:41 | 30.55075 | -86.89854 | 29025 ft | 342 kts | 112° |
| 2026-05-04 21:42 | 30.53286 | -86.84791 | 29032 ft | 342 kts | 112° |
| 2026-05-04 21:42 | 30.51477 | -86.79673 | 29037 ft | 343 kts | 113° |
| 2026-05-04 21:43 | 30.49676 | -86.74586 | 29025 ft | 344 kts | 112° |
| 2026-05-04 21:43 | 30.47862 | -86.69469 | 29040 ft | 344 kts | 112° |
| 2026-05-04 21:44 | 30.46039 | -86.64339 | 29032 ft | 345 kts | 111° |
| 2026-05-04 21:44 | 30.44217 | -86.59212 | 29037 ft | 346 kts | 112° |
| 2026-05-04 21:45 | 30.42380 | -86.54054 | 29035 ft | 347 kts | 112° |
| 2026-05-04 21:45 | 30.40540 | -86.48891 | 29035 ft | 347 kts | 112° |
| 2026-05-04 21:46 | 30.38698 | -86.43733 | 29033 ft | 348 kts | 113° |
| 2026-05-04 21:46 | 30.36849 | -86.38568 | 29036 ft | 350 kts | 112° |
| 2026-05-04 21:47 | 30.34995 | -86.33392 | 29019 ft | 350 kts | 112° |
| 2026-05-04 21:47 | 30.33123 | -86.28173 | 29026 ft | 349 kts | 113° |
| 2026-05-04 21:48 | 30.31272 | -86.23027 | 29017 ft | 349 kts | 112° |
| 2026-05-04 21:48 | 30.29408 | -86.17845 | 29020 ft | 348 kts | 113° |
| 2026-05-04 21:49 | 30.27560 | -86.12721 | 29021 ft | 348 kts | 114° |
| 2026-05-04 21:49 | 30.25699 | -86.07564 | 29020 ft | 348 kts | 114° |
| 2026-05-04 21:50 | 30.23834 | -86.02404 | 29027 ft | 348 kts | 113° |
| 2026-05-04 21:50 | 30.21968 | -85.97245 | 29024 ft | 348 kts | 114° |
| 2026-05-04 21:51 | 30.20113 | -85.92129 | 29025 ft | 348 kts | 114° |
| 2026-05-04 21:51 | 30.18235 | -85.86959 | 29027 ft | 349 kts | 114° |
| 2026-05-04 21:52 | 30.16367 | -85.81818 | 29032 ft | 349 kts | 113° |
| 2026-05-04 21:52 | 30.14487 | -85.76655 | 29023 ft | 350 kts | 114° |
| 2026-05-04 21:53 | 30.12607 | -85.71495 | 29024 ft | 350 kts | 114° |
| 2026-05-04 21:53 | 30.10709 | -85.66296 | 29042 ft | 350 kts | 114° |
| 2026-05-04 21:54 | 30.08831 | -85.61159 | 29037 ft | 351 kts | 113° |
| 2026-05-04 21:54 | 30.07137 | -85.55887 | 29033 ft | 351 kts | 100° |
| 2026-05-04 21:55 | 30.06176 | -85.50394 | 29029 ft | 351 kts | 100° |
| 2026-05-04 21:55 | 30.05189 | -85.44855 | 29028 ft | 353 kts | 100° |
| 2026-05-04 21:56 | 30.04200 | -85.39333 | 29022 ft | 354 kts | 99° |
| 2026-05-04 21:56 | 30.03204 | -85.33778 | 29010 ft | 355 kts | 101° |
| 2026-05-04 21:57 | 30.02202 | -85.28218 | 29003 ft | 354 kts | 100° |
| 2026-05-04 21:57 | 30.01206 | -85.22695 | 28996 ft | 354 kts | 101° |
| 2026-05-04 21:58 | 30.00206 | -85.17168 | 29000 ft | 353 kts | 100° |
| 2026-05-04 21:58 | 29.99202 | -85.11634 | 29004 ft | 353 kts | 100° |
| 2026-05-04 21:59 | 29.98196 | -85.06105 | 28996 ft | 353 kts | 100° |
| 2026-05-04 21:59 | 29.97187 | -85.00570 | 28991 ft | 353 kts | 101° |
| 2026-05-04 22:00 | 29.96185 | -84.95081 | 28998 ft | 353 kts | 100° |
| 2026-05-04 22:00 | 29.95170 | -84.89545 | 28992 ft | 353 kts | 100° |
| 2026-05-04 22:01 | 29.94158 | -84.84031 | 28998 ft | 353 kts | 100° |
| 2026-05-04 22:01 | 29.93144 | -84.78522 | 29000 ft | 353 kts | 100° |
| 2026-05-04 22:02 | 29.92122 | -84.72982 | 29001 ft | 354 kts | 101° |
| 2026-05-04 22:02 | 29.91097 | -84.67441 | 29011 ft | 353 kts | 101° |
| 2026-05-04 22:03 | 29.90076 | -84.61938 | 29016 ft | 354 kts | 101° |
| 2026-05-04 22:03 | 29.89046 | -84.56393 | 29015 ft | 354 kts | 101° |
| 2026-05-04 22:04 | 29.88009 | -84.50833 | 29012 ft | 355 kts | 101° |
| 2026-05-04 22:04 | 29.86979 | -84.45318 | 29017 ft | 355 kts | 101° |
| 2026-05-04 22:05 | 29.85939 | -84.39770 | 29018 ft | 356 kts | 102° |
| 2026-05-04 22:05 | 29.84899 | -84.34232 | 29013 ft | 356 kts | 102° |
| 2026-05-04 22:06 | 29.83854 | -84.28672 | 29003 ft | 355 kts | 102° |
| 2026-05-04 22:06 | 29.82814 | -84.23158 | 28997 ft | 354 kts | 102° |
| 2026-05-04 22:07 | 29.81763 | -84.17600 | 29003 ft | 353 kts | 102° |
| 2026-05-04 22:07 | 29.80722 | -84.12112 | 29010 ft | 353 kts | 102° |
| 2026-05-04 22:08 | 29.79680 | -84.06628 | 29000 ft | 352 kts | 102° |
| 2026-05-04 22:08 | 29.78635 | -84.01139 | 29010 ft | 352 kts | 102° |
| 2026-05-04 22:09 | 29.77589 | -83.95656 | 29008 ft | 351 kts | 103° |
| 2026-05-04 22:09 | 29.76538 | -83.90172 | 29006 ft | 351 kts | 102° |
| 2026-05-04 22:10 | 29.75500 | -83.84755 | 29012 ft | 351 kts | 102° |
| 2026-05-04 22:10 | 29.74448 | -83.79285 | 29005 ft | 351 kts | 102° |
| 2026-05-04 22:11 | 29.73391 | -83.73798 | 29003 ft | 352 kts | 102° |
| 2026-05-04 22:11 | 29.72333 | -83.68321 | 29000 ft | 352 kts | 103° |
| 2026-05-04 22:12 | 29.71276 | -83.62867 | 28997 ft | 352 kts | 102° |
| 2026-05-04 22:12 | 29.70211 | -83.57377 | 29005 ft | 352 kts | 103° |
| 2026-05-04 22:13 | 29.69141 | -83.51873 | 29004 ft | 353 kts | 103° |
| 2026-05-04 22:13 | 29.68072 | -83.46391 | 29002 ft | 353 kts | 102° |
| 2026-05-04 22:14 | 29.66995 | -83.40878 | 29002 ft | 354 kts | 103° |
| 2026-05-04 22:14 | 29.65917 | -83.35378 | 29002 ft | 355 kts | 103° |
| 2026-05-04 22:15 | 29.64312 | -83.30148 | 28994 ft | 343 kts | 134° |
| 2026-05-04 22:15 | 29.62729 | -83.28180 | 29001 ft | 333 kts | 147° |
| 2026-05-04 22:15 | 29.60873 | -83.26756 | 29001 ft | 317 kts | 163° |
| 2026-05-04 22:16 | 29.56853 | -83.24930 | 28993 ft | 306 kts | 173° |
| 2026-05-04 22:16 | 29.52836 | -83.23463 | 28980 ft | 302 kts | 174° |
| 2026-05-04 22:16 | 29.50841 | -83.22765 | 28984 ft | 300 kts | 174° |
| 2026-05-04 22:17 | 29.48862 | -83.22077 | 28985 ft | 299 kts | 175° |
| 2026-05-04 22:17 | 29.46874 | -83.21390 | 28978 ft | 298 kts | 174° |
| 2026-05-04 22:17 | 29.44867 | -83.20699 | 28982 ft | 296 kts | 174° |
| 2026-05-04 22:17 | 29.42896 | -83.20019 | 28972 ft | 296 kts | 175° |
| 2026-05-04 22:18 | 29.40943 | -83.19347 | 28972 ft | 294 kts | 175° |
| 2026-05-04 22:18 | 29.38979 | -83.18671 | 28968 ft | 294 kts | 175° |
| 2026-05-04 22:18 | 29.37041 | -83.18004 | 28972 ft | 292 kts | 175° |
| 2026-05-04 22:18 | 29.35091 | -83.17334 | 28971 ft | 292 kts | 175° |
| 2026-05-04 22:19 | 29.33149 | -83.16666 | 28972 ft | 291 kts | 175° |
| 2026-05-04 22:19 | 29.31197 | -83.15996 | 28968 ft | 290 kts | 175° |
| 2026-05-04 22:19 | 29.29277 | -83.15337 | 28968 ft | 289 kts | 175° |
| 2026-05-04 22:19 | 29.27327 | -83.14668 | 28973 ft | 289 kts | 175° |
| 2026-05-04 22:20 | 29.25403 | -83.14007 | 28970 ft | 288 kts | 175° |
| 2026-05-04 22:20 | 29.23501 | -83.13354 | 28974 ft | 287 kts | 175° |
| 2026-05-04 22:20 | 29.21579 | -83.12695 | 28977 ft | 286 kts | 175° |
| 2026-05-04 22:20 | 29.19679 | -83.12044 | 28978 ft | 285 kts | 175° |
| 2026-05-04 22:21 | 29.17775 | -83.11392 | 28985 ft | 284 kts | 175° |
| 2026-05-04 22:21 | 29.15891 | -83.10747 | 28984 ft | 284 kts | 175° |
| 2026-05-04 22:21 | 29.13997 | -83.10098 | 28991 ft | 283 kts | 175° |
| 2026-05-04 22:21 | 29.12130 | -83.09460 | 28981 ft | 283 kts | 175° |
| 2026-05-04 22:22 | 29.10255 | -83.08818 | 28989 ft | 282 kts | 175° |
| 2026-05-04 22:22 | 29.08370 | -83.08173 | 28989 ft | 282 kts | 175° |
| 2026-05-04 22:22 | 29.06477 | -83.07526 | 28989 ft | 282 kts | 175° |
| 2026-05-04 22:22 | 29.04617 | -83.06891 | 28989 ft | 282 kts | 175° |
| 2026-05-04 22:23 | 29.02727 | -83.06245 | 28985 ft | 281 kts | 175° |
| 2026-05-04 22:23 | 29.00866 | -83.05610 | 28986 ft | 281 kts | 175° |
| 2026-05-04 22:23 | 28.98996 | -83.04971 | 28986 ft | 281 kts | 175° |
| 2026-05-04 22:23 | 28.97120 | -83.04331 | 28985 ft | 280 kts | 175° |
| 2026-05-04 22:24 | 28.95254 | -83.03695 | 28997 ft | 280 kts | 175° |
| 2026-05-04 22:24 | 28.93393 | -83.03060 | 28991 ft | 280 kts | 175° |
| 2026-05-04 22:24 | 28.91511 | -83.02419 | 28987 ft | 280 kts | 175° |
| 2026-05-04 22:24 | 28.89672 | -83.01793 | 28988 ft | 280 kts | 175° |
| 2026-05-04 22:25 | 28.87817 | -83.01161 | 28988 ft | 279 kts | 175° |
| 2026-05-04 22:25 | 28.85948 | -83.00525 | 28988 ft | 279 kts | 175° |
| 2026-05-04 22:25 | 28.84100 | -82.99895 | 28981 ft | 279 kts | 175° |
| 2026-05-04 22:25 | 28.82233 | -82.99261 | 28982 ft | 278 kts | 175° |
| 2026-05-04 22:26 | 28.80386 | -82.98632 | 28984 ft | 278 kts | 175° |
| 2026-05-04 22:26 | 28.78531 | -82.98002 | 28983 ft | 278 kts | 175° |
| 2026-05-04 22:26 | 28.76680 | -82.97373 | 28986 ft | 277 kts | 175° |
| 2026-05-04 22:26 | 28.74827 | -82.96744 | 28986 ft | 277 kts | 175° |
| 2026-05-04 22:27 | 28.72990 | -82.96121 | 28987 ft | 277 kts | 175° |
| 2026-05-04 22:27 | 28.71149 | -82.95495 | 28984 ft | 276 kts | 175° |
| 2026-05-04 22:27 | 28.69309 | -82.94871 | 28983 ft | 276 kts | 176° |
| 2026-05-04 22:27 | 28.67457 | -82.94243 | 28985 ft | 276 kts | 176° |
| 2026-05-04 22:28 | 28.65612 | -82.93617 | 28983 ft | 276 kts | 175° |
| 2026-05-04 22:28 | 28.63798 | -82.93002 | 28982 ft | 275 kts | 176° |
| 2026-05-04 22:28 | 28.61941 | -82.92374 | 28985 ft | 275 kts | 175° |
| 2026-05-04 22:28 | 28.60120 | -82.91756 | 28995 ft | 274 kts | 175° |
| 2026-05-04 22:29 | 28.58276 | -82.91132 | 28985 ft | 275 kts | 175° |
| 2026-05-04 22:29 | 28.56454 | -82.90516 | 28989 ft | 275 kts | 175° |
| 2026-05-04 22:29 | 28.54627 | -82.89898 | 28998 ft | 274 kts | 175° |
| 2026-05-04 22:29 | 28.52801 | -82.89281 | 28990 ft | 275 kts | 175° |
| 2026-05-04 22:30 | 28.50987 | -82.88667 | 28990 ft | 274 kts | 176° |
| 2026-05-04 22:30 | 28.49166 | -82.88052 | 28989 ft | 274 kts | 175° |
| 2026-05-04 22:30 | 28.47323 | -82.87429 | 28989 ft | 275 kts | 175° |
| 2026-05-04 22:30 | 28.45492 | -82.86811 | 28994 ft | 274 kts | 175° |
| 2026-05-04 22:31 | 28.43661 | -82.86193 | 28990 ft | 274 kts | 176° |
| 2026-05-04 22:31 | 28.41822 | -82.85573 | 28992 ft | 274 kts | 175° |
| 2026-05-04 22:31 | 28.40007 | -82.84960 | 28990 ft | 274 kts | 175° |
| 2026-05-04 22:31 | 28.38182 | -82.84345 | 28991 ft | 274 kts | 175° |
| 2026-05-04 22:32 | 28.36334 | -82.83721 | 28988 ft | 274 kts | 175° |
| 2026-05-04 22:32 | 28.34515 | -82.83109 | 28987 ft | 274 kts | 175° |
| 2026-05-04 22:32 | 28.32676 | -82.82489 | 28995 ft | 274 kts | 176° |
| 2026-05-04 22:32 | 28.30852 | -82.81875 | 28988 ft | 274 kts | 176° |
| 2026-05-04 22:33 | 28.29036 | -82.81264 | 28990 ft | 275 kts | 175° |
| 2026-05-04 22:33 | 28.27188 | -82.80643 | 28987 ft | 275 kts | 175° |
| 2026-05-04 22:33 | 28.25372 | -82.80031 | 28995 ft | 274 kts | 176° |
| 2026-05-04 22:33 | 28.23540 | -82.79415 | 28994 ft | 275 kts | 176° |
| 2026-05-04 22:34 | 28.21713 | -82.78801 | 29000 ft | 274 kts | 176° |
| 2026-05-04 22:34 | 28.19858 | -82.78178 | 28996 ft | 275 kts | 175° |
| 2026-05-04 22:34 | 28.18035 | -82.77566 | 28993 ft | 275 kts | 176° |
| 2026-05-04 22:34 | 28.16188 | -82.76945 | 28996 ft | 275 kts | 175° |
| 2026-05-04 22:35 | 28.14372 | -82.76336 | 28996 ft | 275 kts | 175° |
| 2026-05-04 22:35 | 28.12526 | -82.75717 | 29001 ft | 275 kts | 175° |
| 2026-05-04 22:35 | 28.10718 | -82.75111 | 28999 ft | 275 kts | 175° |
| 2026-05-04 22:35 | 28.08875 | -82.74493 | 29001 ft | 275 kts | 175° |
| 2026-05-04 22:36 | 28.07029 | -82.73874 | 29001 ft | 276 kts | 176° |
| 2026-05-04 22:36 | 28.05230 | -82.73271 | 29005 ft | 276 kts | 176° |
| 2026-05-04 22:36 | 28.03391 | -82.72655 | 29010 ft | 276 kts | 176° |
| 2026-05-04 22:36 | 28.01517 | -82.72028 | 29000 ft | 277 kts | 175° |
| 2026-05-04 22:37 | 27.99686 | -82.71416 | 29002 ft | 277 kts | 175° |
| 2026-05-04 22:37 | 27.97860 | -82.70804 | 29001 ft | 277 kts | 176° |
| 2026-05-04 22:37 | 27.95998 | -82.70181 | 29000 ft | 278 kts | 176° |
| 2026-05-04 22:37 | 27.94157 | -82.69566 | 29003 ft | 277 kts | 176° |
| 2026-05-04 22:38 | 27.92305 | -82.68947 | 29001 ft | 278 kts | 176° |
| 2026-05-04 22:38 | 27.90465 | -82.68276 | 28996 ft | 284 kts | 168° |
| 2026-05-04 22:38 | 27.88666 | -82.67339 | 29000 ft | 287 kts | 166° |
| 2026-05-04 22:38 | 27.86870 | -82.66390 | 28995 ft | 287 kts | 166° |
| 2026-05-04 22:39 | 27.85054 | -82.65434 | 28996 ft | 287 kts | 166° |
| 2026-05-04 22:39 | 27.83265 | -82.64494 | 28999 ft | 287 kts | 166° |
| 2026-05-04 22:39 | 27.81463 | -82.63548 | 29000 ft | 287 kts | 166° |
| 2026-05-04 22:39 | 27.79636 | -82.62590 | 28997 ft | 287 kts | 166° |
| 2026-05-04 22:40 | 27.77845 | -82.61650 | 28998 ft | 288 kts | 166° |
| 2026-05-04 22:40 | 27.76013 | -82.60690 | 28993 ft | 288 kts | 166° |
| 2026-05-04 22:40 | 27.74215 | -82.59748 | 28994 ft | 287 kts | 166° |
| 2026-05-04 22:40 | 27.72395 | -82.58795 | 28993 ft | 288 kts | 166° |
| 2026-05-04 22:41 | 27.70602 | -82.57855 | 29004 ft | 288 kts | 166° |
| 2026-05-04 22:41 | 27.68779 | -82.56902 | 29000 ft | 288 kts | 166° |
| 2026-05-04 22:41 | 27.66961 | -82.55951 | 28994 ft | 288 kts | 166° |
| 2026-05-04 22:41 | 27.65132 | -82.54993 | 28996 ft | 288 kts | 165° |
| 2026-05-04 22:42 | 27.63323 | -82.54048 | 28999 ft | 288 kts | 166° |
| 2026-05-04 22:42 | 27.61498 | -82.53095 | 28998 ft | 289 kts | 166° |
| 2026-05-04 22:42 | 27.59678 | -82.52144 | 28998 ft | 289 kts | 166° |
| 2026-05-04 22:42 | 27.57857 | -82.51193 | 28994 ft | 289 kts | 166° |
| 2026-05-04 22:43 | 27.56023 | -82.50235 | 28993 ft | 290 kts | 166° |
| 2026-05-04 22:43 | 27.54214 | -82.49291 | 28998 ft | 289 kts | 166° |
| 2026-05-04 22:43 | 27.52367 | -82.48328 | 28998 ft | 290 kts | 166° |
| 2026-05-04 22:43 | 27.50538 | -82.47374 | 28998 ft | 290 kts | 166° |
| 2026-05-04 22:44 | 27.48721 | -82.46426 | 28996 ft | 290 kts | 166° |
| 2026-05-04 22:44 | 27.46907 | -82.45482 | 28991 ft | 291 kts | 165° |
| 2026-05-04 22:44 | 27.45078 | -82.44529 | 29001 ft | 292 kts | 166° |
| 2026-05-04 22:44 | 27.42874 | -82.43382 | 29007 ft | 298 kts | 165° |
| 2026-05-04 22:45 | 27.40986 | -82.42400 | 29000 ft | 303 kts | 165° |
| 2026-05-04 22:45 | 27.35142 | -82.39361 | 29007 ft | 317 kts | 165° |
| 2026-05-04 22:46 | 27.31130 | -82.37276 | 29000 ft | 324 kts | 164° |
| 2026-05-04 22:46 | 27.26979 | -82.35120 | 29011 ft | 332 kts | 165° |
| 2026-05-04 22:47 | 27.22803 | -82.32954 | 28992 ft | 337 kts | 165° |
| 2026-05-04 22:47 | 27.18531 | -82.30740 | 28990 ft | 342 kts | 164° |
| 2026-05-04 22:48 | 27.14180 | -82.28487 | 28991 ft | 346 kts | 164° |
| 2026-05-04 22:48 | 27.09779 | -82.26210 | 28987 ft | 350 kts | 164° |
| 2026-05-04 22:49 | 27.05368 | -82.23930 | 28992 ft | 353 kts | 163° |
| 2026-05-04 22:49 | 27.00896 | -82.21619 | 28989 ft | 356 kts | 163° |
| 2026-05-04 22:50 | 26.96386 | -82.19292 | 28985 ft | 359 kts | 164° |
| 2026-05-04 22:50 | 26.91838 | -82.16947 | 28991 ft | 361 kts | 164° |
| 2026-05-04 22:51 | 26.87298 | -82.14609 | 28983 ft | 362 kts | 163° |
| 2026-05-04 22:51 | 26.84970 | -82.13559 | 28975 ft | 351 kts | 176° |
| 2026-05-04 22:51 | 26.82622 | -82.13092 | 28997 ft | 346 kts | 181° |
| 2026-05-04 22:52 | 26.77849 | -82.12272 | 28989 ft | 347 kts | 181° |
| 2026-05-04 22:52 | 26.73082 | -82.11475 | 28980 ft | 348 kts | 181° |
| 2026-05-04 22:53 | 26.68367 | -82.10690 | 28979 ft | 348 kts | 181° |
| 2026-05-04 22:53 | 26.63555 | -82.09893 | 29004 ft | 348 kts | 181° |
| 2026-05-04 22:54 | 26.58804 | -82.09102 | 28971 ft | 350 kts | 181° |
| 2026-05-04 22:54 | 26.53971 | -82.08300 | 28980 ft | 350 kts | 181° |
| 2026-05-04 22:55 | 26.49174 | -82.07505 | 28966 ft | 351 kts | 181° |
| 2026-05-04 22:55 | 26.44335 | -82.06703 | 28976 ft | 350 kts | 181° |
| 2026-05-04 22:56 | 26.39523 | -82.05907 | 28968 ft | 350 kts | 181° |
| 2026-05-04 22:56 | 26.34718 | -82.05111 | 28977 ft | 350 kts | 181° |
| 2026-05-04 22:57 | 26.29855 | -82.04307 | 28974 ft | 351 kts | 181° |
| 2026-05-04 22:57 | 26.25026 | -82.03221 | 29029 ft | 353 kts | 177° |
| 2026-05-04 22:58 | 26.20287 | -82.02805 | 28979 ft | 334 kts | 197° |
| 2026-05-04 22:58 | 26.15861 | -82.04073 | 28780 ft | 328 kts | 209° |
| 2026-05-04 22:59 | 26.11881 | -82.06200 | 28715 ft | 310 kts | 227° |
| 2026-05-04 22:59 | 26.10280 | -82.07755 | 28581 ft | 309 kts | 231° |
| 2026-05-04 22:59 | 26.08780 | -82.09430 | 28338 ft | 298 kts | 236° |
| 2026-05-04 23:00 | 26.07871 | -82.11381 | 27617 ft | 283 kts | 259° |
| 2026-05-04 23:00 | 26.06825 | -82.13225 | 27201 ft | 291 kts | 233° |
| 2026-05-04 23:00 | 26.05164 | -82.14505 | 26700 ft | 302 kts | 219° |
| 2026-05-04 23:00 | 26.03346 | -82.15681 | 25796 ft | 308 kts | 221° |
| 2026-05-04 23:01 | 26.01490 | -82.16896 | 25225 ft | 305 kts | 219° |
| 2026-05-04 23:01 | 25.99733 | -82.18108 | 24925 ft | 293 kts | 219° |
| 2026-05-04 23:01 | 25.97768 | -82.18807 | 24499 ft | 307 kts | 195° |
| 2026-05-04 23:01 | 25.95615 | -82.18536 | 24112 ft | 322 kts | 171° |
| 2026-05-04 23:02 | 25.93568 | -82.17493 | 23743 ft | 320 kts | 164° |
| 2026-05-04 23:02 | 25.91515 | -82.16607 | 23371 ft | 311 kts | 169° |
| 2026-05-04 23:02 | 25.89532 | -82.15897 | 23007 ft | 305 kts | 172° |
| 2026-05-04 23:02 | 25.87499 | -82.15234 | 22624 ft | 301 kts | 173° |
| 2026-05-04 23:03 | 25.85504 | -82.14613 | 22254 ft | 297 kts | 174° |
| 2026-05-04 23:03 | 25.83536 | -82.14011 | 21889 ft | 294 kts | 174° |
| 2026-05-04 23:03 | 25.81561 | -82.13413 | 21521 ft | 291 kts | 174° |
| 2026-05-04 23:03 | 25.79618 | -82.12827 | 21153 ft | 289 kts | 174° |
| 2026-05-04 23:04 | 25.77659 | -82.12239 | 20791 ft | 292 kts | 174° |
| 2026-05-04 23:04 | 25.75714 | -82.11655 | 20438 ft | 295 kts | 173° |
| 2026-05-04 23:04 | 25.73734 | -82.11060 | 20089 ft | 298 kts | 174° |
| 2026-05-04 23:04 | 25.71720 | -82.10455 | 19740 ft | 304 kts | 173° |
| 2026-05-04 23:05 | 25.69657 | -82.09837 | 19389 ft | 308 kts | 173° |
| 2026-05-04 23:05 | 25.67576 | -82.09213 | 19042 ft | 311 kts | 173° |
| 2026-05-04 23:05 | 25.65495 | -82.08589 | 18689 ft | 314 kts | 173° |
| 2026-05-04 23:05 | 25.63366 | -82.07951 | 18337 ft | 317 kts | 173° |
| 2026-05-04 23:06 | 25.61232 | -82.07310 | 17989 ft | 318 kts | 173° |
| 2026-05-04 23:06 | 25.59082 | -82.06667 | 17627 ft | 319 kts | 172° |
| 2026-05-04 23:06 | 25.56922 | -82.06020 | 17272 ft | 320 kts | 172° |
| 2026-05-04 23:06 | 25.54772 | -82.05377 | 16925 ft | 321 kts | 172° |
| 2026-05-04 23:07 | 25.52620 | -82.04733 | 16575 ft | 321 kts | 172° |
| 2026-05-04 23:07 | 25.50459 | -82.04087 | 16220 ft | 321 kts | 172° |
| 2026-05-04 23:07 | 25.48299 | -82.03442 | 15869 ft | 321 kts | 171° |
| 2026-05-04 23:07 | 25.46138 | -82.02795 | 15515 ft | 321 kts | 172° |
| 2026-05-04 23:08 | 25.43991 | -82.02155 | 15166 ft | 321 kts | 171° |
| 2026-05-04 23:08 | 25.41831 | -82.01510 | 14810 ft | 320 kts | 171° |
| 2026-05-04 23:08 | 25.39680 | -82.00867 | 14456 ft | 320 kts | 171° |
| 2026-05-04 23:08 | 25.37541 | -82.00228 | 14109 ft | 319 kts | 171° |
| 2026-05-04 23:09 | 25.35412 | -81.99594 | 13753 ft | 319 kts | 171° |
| 2026-05-04 23:09 | 25.33278 | -81.98957 | 13404 ft | 318 kts | 171° |
| 2026-05-04 23:09 | 25.31135 | -81.98319 | 13047 ft | 317 kts | 171° |
| 2026-05-04 23:09 | 25.29005 | -81.97684 | 12694 ft | 317 kts | 171° |
| 2026-05-04 23:10 | 25.26879 | -81.97051 | 12340 ft | 316 kts | 171° |
| 2026-05-04 23:10 | 25.24770 | -81.96423 | 11990 ft | 315 kts | 170° |
| 2026-05-04 23:10 | 25.22671 | -81.95799 | 11638 ft | 313 kts | 170° |
| 2026-05-04 23:10 | 25.20548 | -81.95167 | 11277 ft | 312 kts | 170° |
| 2026-05-04 23:11 | 25.18475 | -81.94550 | 10906 ft | 303 kts | 170° |
| 2026-05-04 23:11 | 25.16480 | -81.93957 | 10561 ft | 294 kts | 170° |
| 2026-05-04 23:11 | 25.14575 | -81.93388 | 10499 ft | 276 kts | 170° |
| 2026-05-04 23:11 | 25.12751 | -81.92847 | 10497 ft | 268 kts | 170° |
| 2026-05-04 23:12 | 25.10945 | -81.92311 | 10503 ft | 270 kts | 170° |
| 2026-05-04 23:12 | 25.09137 | -81.91775 | 10503 ft | 271 kts | 170° |
| 2026-05-04 23:12 | 25.07313 | -81.91234 | 10508 ft | 272 kts | 170° |
| 2026-05-04 23:12 | 25.05483 | -81.90691 | 10506 ft | 272 kts | 171° |
| 2026-05-04 23:13 | 25.03638 | -81.90144 | 10502 ft | 273 kts | 170° |
| 2026-05-04 23:13 | 25.01808 | -81.89601 | 10504 ft | 273 kts | 170° |
| 2026-05-04 23:13 | 24.99977 | -81.89058 | 10502 ft | 274 kts | 170° |
| 2026-05-04 23:13 | 24.98132 | -81.88510 | 10499 ft | 274 kts | 171° |
| 2026-05-04 23:14 | 24.96281 | -81.87964 | 10151 ft | 276 kts | 170° |
| 2026-05-04 23:14 | 24.94412 | -81.87411 | 9793 ft | 275 kts | 169° |
| 2026-05-04 23:14 | 24.92587 | -81.86870 | 9441 ft | 274 kts | 169° |
| 2026-05-04 23:14 | 24.90734 | -81.86321 | 9078 ft | 274 kts | 169° |
| 2026-05-04 23:15 | 24.88899 | -81.85779 | 8715 ft | 273 kts | 169° |
| 2026-05-04 23:15 | 24.87045 | -81.85229 | 8351 ft | 273 kts | 169° |
| 2026-05-04 23:15 | 24.85240 | -81.84696 | 7971 ft | 270 kts | 169° |
| 2026-05-04 23:15 | 24.83427 | -81.84159 | 7581 ft | 267 kts | 168° |
| 2026-05-04 23:16 | 24.81636 | -81.83630 | 7218 ft | 265 kts | 168° |
| 2026-05-04 23:16 | 24.79878 | -81.83111 | 6861 ft | 263 kts | 168° |
| 2026-05-04 23:16 | 24.78118 | -81.82591 | 6503 ft | 261 kts | 168° |
| 2026-05-04 23:16 | 24.76351 | -81.82069 | 6143 ft | 260 kts | 168° |
| 2026-05-04 23:17 | 24.74622 | -81.81560 | 5787 ft | 259 kts | 167° |
| 2026-05-04 23:17 | 24.72886 | -81.81048 | 5428 ft | 258 kts | 167° |
| 2026-05-04 23:17 | 24.71141 | -81.80534 | 5068 ft | 258 kts | 167° |
| 2026-05-04 23:17 | 24.69420 | -81.80026 | 4712 ft | 257 kts | 167° |
| 2026-05-04 23:18 | 24.67688 | -81.79514 | 4530 ft | 249 kts | 166° |
| 2026-05-04 23:18 | 24.66048 | -81.79031 | 4480 ft | 238 kts | 167° |
| 2026-05-04 23:18 | 24.64462 | -81.78566 | 4095 ft | 237 kts | 166° |
| 2026-05-04 23:18 | 24.62869 | -81.78097 | 3732 ft | 235 kts | 166° |
| 2026-05-04 23:19 | 24.61297 | -81.77633 | 3363 ft | 231 kts | 165° |
| 2026-05-04 23:19 | 24.59758 | -81.77180 | 2999 ft | 227 kts | 165° |
| 2026-05-04 23:19 | 24.58290 | -81.76759 | 2634 ft | 212 kts | 177° |
| 2026-05-04 23:19 | 24.56932 | -81.76914 | 2146 ft | 199 kts | 216° |
| 2026-05-04 23:20 | 24.56143 | -81.78092 | 1844 ft | 192 kts | 242° |
| 2026-05-04 23:20 | 24.55715 | -81.79436 | 1440 ft | 191 kts | 265° |
| 2026-05-04 23:20 | 24.55613 | -81.80867 | 1189 ft | 181 kts | 253° |
| 2026-05-04 23:20 | 24.54767 | -81.81489 | 1111 ft | 156 kts | 162° |
| 2026-05-04 23:21 | 24.54558 | -81.80547 | 884 ft | 162 kts | 58° |
| 2026-05-04 23:21 | 24.55115 | -81.79520 | 632 ft | 150 kts | 64° |
| 2026-05-04 23:21 | 24.55539 | -81.78464 | 452 ft | 146 kts | 77° |
| 2026-05-04 23:21 | 24.55606 | -81.77405 | 187 ft | 132 kts | 92° |
| 2026-05-04 23:22 | 24.55606 | -81.76477 | 12 ft | 109 kts | 90° |
| 2026-05-04 23:22 | 24.55605 | -81.75721 | 5 ft | 84 kts | 89° |
| 2026-05-04 23:22 | 24.55615 | -81.75313 | 5 ft | 30 kts | 91° |
| 2026-05-04 23:22 | 24.55599 | -81.75245 | 5 ft | 0 kts | 157° |
| 2026-05-04 23:23 | 24.55574 | -81.75239 | 5 ft | 9 kts | 179° |
| 2026-05-04 23:23 | 24.55536 | -81.75289 | 5 ft | 12 kts | 267° |
| 2026-05-04 23:23 | 24.55530 | -81.75404 | 5 ft | 17 kts | 268° |
| 2026-05-04 23:23 | 24.55529 | -81.75545 | 5 ft | 19 kts | 270° |
| 2026-05-04 23:24 | 24.55519 | -81.75676 | 5 ft | 12 kts | 199° |
| 2026-05-04 23:24 | 24.55433 | -81.75658 | 5 ft | 10 kts | 199° |
| 2026-05-04 23:24 | 24.55432 | -81.75691 | 5 ft | 5 kts | 359° |
| 2026-05-04 23:24 | 24.55444 | -81.75690 | 5 ft | 0 kts | 7° |
| 2026-05-04 23:25 | 24.55463 | -81.75729 | 5 ft | 7 kts | 311° |
| 2026-05-04 23:25 | 24.55475 | -81.75736 | 5 ft | 0 kts | 352° |
| 2026-05-04 23:25 | 24.55469 | -81.75738 | 5 ft | 5 kts | 121° |
| 2026-05-04 23:25 | 24.55463 | -81.75675 | 5 ft | 7 kts | 83° |
| 2026-05-04 23:26 | 24.55481 | -81.75666 | 5 ft | 0 kts | 354° |